sensor_id;sensor_type;location;lat;lon;timestamp;pressure;altitude;pressure_sealevel;temperature;humidity
12879;BME280;20617;49.476;10.986;2023-11-21T00:00:34;97714.25;;;9.67;100.00
12879;BME280;20617;49.476;10.986;2023-11-21T00:02:39;97711.28;;;9.74;100.00
12879;BME280;20617;49.476;10.986;2023-11-21T00:04:44;97713.75;;;9.78;100.00
12879;BME280;20617;49.476;10.986;2023-11-21T00:06:52;97715.41;;;9.79;100.00
12879;BME280;20617;49.476;10.986;2023-11-21T00:08:57;97707.69;;;9.77;100.00
12879;BME280;20617;49.476;10.986;2023-11-21T00:11:02;97708.47;;;9.79;100.00
12879;BME280;20617;49.476;10.986;2023-11-21T00:13:07;97705.81;;;9.81;100.00
12879;BME280;20617;49.476;10.986;2023-11-21T00:15:14;97710.75;;;9.85;100.00
12879;BME280;20617;49.476;10.986;2023-11-21T00:17:20;97705.50;;;9.87;100.00
12879;BME280;20617;49.476;10.986;2023-11-21T00:19:25;97705.34;;;9.90;100.00
12879;BME280;20617;49.476;10.986;2023-11-21T00:21:31;97710.31;;;9.94;100.00
12879;BME280;20617;49.476;10.986;2023-11-21T00:23:38;97702.31;;;9.99;100.00
12879;BME280;20617;49.476;10.986;2023-11-21T00:25:43;97699.72;;;9.99;100.00
12879;BME280;20617;49.476;10.986;2023-11-21T00:27:48;97704.22;;;9.95;100.00
12879;BME280;20617;49.476;10.986;2023-11-21T00:29:51;97702.47;;;9.96;100.00
12879;BME280;20617;49.476;10.986;2023-11-21T00:31:56;97693.56;;;10.00;100.00
12879;BME280;20617;49.476;10.986;2023-11-21T00:34:02;97699.41;;;10.05;100.00
12879;BME280;20617;49.476;10.986;2023-11-21T00:36:09;97698.63;;;10.03;100.00
12879;BME280;20617;49.476;10.986;2023-11-21T00:38:14;97700.63;;;9.98;100.00
12879;BME280;20617;49.476;10.986;2023-11-21T00:40:25;97698.09;;;9.96;100.00
12879;BME280;20617;49.476;10.986;2023-11-21T00:42:30;97699.03;;;9.95;100.00
12879;BME280;20617;49.476;10.986;2023-11-21T00:44:37;97702.38;;;9.97;100.00
12879;BME280;20617;49.476;10.986;2023-11-21T00:46:40;97693.66;;;9.98;100.00
12879;BME280;20617;49.476;10.986;2023-11-21T00:48:45;97689.31;;;9.99;100.00
12879;BME280;20617;49.476;10.986;2023-11-21T00:50:51;97696.31;;;9.97;100.00
12879;BME280;20617;49.476;10.986;2023-11-21T00:52:58;97703.22;;;9.98;100.00
12879;BME280;20617;49.476;10.986;2023-11-21T00:55:05;97698.88;;;9.98;100.00
12879;BME280;20617;49.476;10.986;2023-11-21T00:57:12;97703.78;;;10.05;100.00
12879;BME280;20617;49.476;10.986;2023-11-21T00:59:17;97703.69;;;10.06;100.00
12879;BME280;20617;49.476;10.986;2023-11-21T01:01:22;97696.97;;;10.02;100.00
12879;BME280;20617;49.476;10.986;2023-11-21T01:03:27;97706.59;;;10.00;100.00
12879;BME280;20617;49.476;10.986;2023-11-21T01:05:32;97701.38;;;10.00;100.00
12879;BME280;20617;49.476;10.986;2023-11-21T01:07:37;97703.09;;;10.01;100.00
12879;BME280;20617;49.476;10.986;2023-11-21T01:09:39;97702.16;;;10.02;100.00
12879;BME280;20617;49.476;10.986;2023-11-21T01:11:46;97707.50;;;9.99;100.00
12879;BME280;20617;49.476;10.986;2023-11-21T01:13:53;97709.28;;;9.98;100.00
12879;BME280;20617;49.476;10.986;2023-11-21T01:15:59;97707.50;;;9.99;100.00
12879;BME280;20617;49.476;10.986;2023-11-21T01:18:04;97708.28;;;10.01;100.00
12879;BME280;20617;49.476;10.986;2023-11-21T01:20:11;97707.50;;;9.99;100.00
12879;BME280;20617;49.476;10.986;2023-11-21T01:22:16;97711.03;;;9.98;100.00
12879;BME280;20617;49.476;10.986;2023-11-21T01:24:19;97712.84;;;9.96;100.00
12879;BME280;20617;49.476;10.986;2023-11-21T01:26:25;97712.75;;;9.97;100.00
12879;BME280;20617;49.476;10.986;2023-11-21T01:28:30;97712.72;;;9.99;100.00
12879;BME280;20617;49.476;10.986;2023-11-21T01:30:37;97715.47;;;9.96;100.00
12879;BME280;20617;49.476;10.986;2023-11-21T01:32:43;97720.56;;;9.97;100.00
12879;BME280;20617;49.476;10.986;2023-11-21T01:34:50;97716.38;;;9.95;100.00
12879;BME280;20617;49.476;10.986;2023-11-21T01:36:55;97711.09;;;9.96;100.00
12879;BME280;20617;49.476;10.986;2023-11-21T01:39:03;97710.47;;;9.91;100.00
12879;BME280;20617;49.476;10.986;2023-11-21T01:41:10;97711.53;;;9.87;100.00
12879;BME280;20617;49.476;10.986;2023-11-21T01:43:15;97709.78;;;9.88;100.00
12879;BME280;20617;49.476;10.986;2023-11-21T01:45:20;97714.19;;;9.86;100.00
12879;BME280;20617;49.476;10.986;2023-11-21T01:47:29;97704.59;;;9.88;100.00
12879;BME280;20617;49.476;10.986;2023-11-21T01:49:35;97706.56;;;9.83;100.00
12879;BME280;20617;49.476;10.986;2023-11-21T01:51:41;97705.66;;;9.84;100.00
12879;BME280;20617;49.476;10.986;2023-11-21T01:53:48;97701.16;;;9.87;100.00
12879;BME280;20617;49.476;10.986;2023-11-21T01:55:55;97705.50;;;9.87;100.00
12879;BME280;20617;49.476;10.986;2023-11-21T01:58:02;97699.53;;;9.85;100.00
12879;BME280;20617;49.476;10.986;2023-11-21T02:00:10;97701.06;;;9.89;100.00
12879;BME280;20617;49.476;10.986;2023-11-21T02:02:17;97698.44;;;9.89;100.00
12879;BME280;20617;49.476;10.986;2023-11-21T02:04:25;97705.41;;;9.88;100.00
12879;BME280;20617;49.476;10.986;2023-11-21T02:06:30;97703.53;;;9.92;100.00
12879;BME280;20617;49.476;10.986;2023-11-21T02:08:36;97709.47;;;9.94;100.00
12879;BME280;20617;49.476;10.986;2023-11-21T02:10:46;97699.84;;;9.96;100.00
12879;BME280;20617;49.476;10.986;2023-11-21T02:12:51;97694.81;;;9.93;100.00
12879;BME280;20617;49.476;10.986;2023-11-21T02:14:55;97693.88;;;9.94;100.00
12879;BME280;20617;49.476;10.986;2023-11-21T02:17:00;97695.66;;;9.93;100.00
12879;BME280;20617;49.476;10.986;2023-11-21T02:19:07;97689.06;;;9.86;100.00
12879;BME280;20617;49.476;10.986;2023-11-21T02:21:19;97692.34;;;9.90;100.00
12879;BME280;20617;49.476;10.986;2023-11-21T02:23:26;97692.22;;;9.93;100.00
12879;BME280;20617;49.476;10.986;2023-11-21T02:25:32;97690.38;;;9.95;100.00
12879;BME280;20617;49.476;10.986;2023-11-21T02:27:39;97691.97;;;9.97;100.00
12879;BME280;20617;49.476;10.986;2023-11-21T02:29:42;97696.28;;;9.98;100.00
12879;BME280;20617;49.476;10.986;2023-11-21T02:31:47;97688.63;;;9.95;100.00
12879;BME280;20617;49.476;10.986;2023-11-21T02:33:50;97692.13;;;9.94;100.00
12879;BME280;20617;49.476;10.986;2023-11-21T02:35:55;97690.44;;;9.93;100.00
12879;BME280;20617;49.476;10.986;2023-11-21T02:38:01;97694.03;;;9.91;100.00
12879;BME280;20617;49.476;10.986;2023-11-21T02:40:10;97691.59;;;9.88;100.00
12879;BME280;20617;49.476;10.986;2023-11-21T02:42:20;97685.59;;;9.86;100.00
12879;BME280;20617;49.476;10.986;2023-11-21T02:44:22;97686.69;;;9.82;100.00
12879;BME280;20617;49.476;10.986;2023-11-21T02:46:28;97682.25;;;9.84;100.00
12879;BME280;20617;49.476;10.986;2023-11-21T02:48:30;97679.66;;;9.84;100.00
12879;BME280;20617;49.476;10.986;2023-11-21T02:50:35;97681.28;;;9.86;100.00
12879;BME280;20617;49.476;10.986;2023-11-21T02:52:41;97676.81;;;9.88;100.00
12879;BME280;20617;49.476;10.986;2023-11-21T02:54:46;97675.22;;;9.86;100.00
12879;BME280;20617;49.476;10.986;2023-11-21T02:56:54;97680.34;;;9.87;100.00
12879;BME280;20617;49.476;10.986;2023-11-21T02:59:01;97670.72;;;9.89;100.00
12879;BME280;20617;49.476;10.986;2023-11-21T03:01:04;97674.22;;;9.88;100.00
12879;BME280;20617;49.476;10.986;2023-11-21T03:03:10;97671.41;;;9.93;100.00
12879;BME280;20617;49.476;10.986;2023-11-21T03:05:12;97670.56;;;9.92;100.00
12879;BME280;20617;49.476;10.986;2023-11-21T03:07:17;97673.91;;;9.94;100.00
12879;BME280;20617;49.476;10.986;2023-11-21T03:09:23;97674.78;;;9.95;100.00
12879;BME280;20617;49.476;10.986;2023-11-21T03:11:28;97676.47;;;9.96;100.00
12879;BME280;20617;49.476;10.986;2023-11-21T03:13:33;97669.66;;;9.93;100.00
12879;BME280;20617;49.476;10.986;2023-11-21T03:15:38;97665.44;;;9.91;100.00
12879;BME280;20617;49.476;10.986;2023-11-21T03:17:45;97675.06;;;9.89;100.00
12879;BME280;20617;49.476;10.986;2023-11-21T03:19:51;97676.66;;;9.91;100.00
12879;BME280;20617;49.476;10.986;2023-11-21T03:21:54;97673.09;;;9.94;100.00
12879;BME280;20617;49.476;10.986;2023-11-21T03:23:59;97677.28;;;9.96;100.00
12879;BME280;20617;49.476;10.986;2023-11-21T03:26:04;97679.91;;;9.96;100.00
12879;BME280;20617;49.476;10.986;2023-11-21T03:28:10;97672.09;;;9.96;100.00
12879;BME280;20617;49.476;10.986;2023-11-21T03:30:18;97681.56;;;9.97;100.00
12879;BME280;20617;49.476;10.986;2023-11-21T03:32:20;97685.25;;;9.93;100.00
12879;BME280;20617;49.476;10.986;2023-11-21T03:34:27;97682.50;;;9.96;100.00
12879;BME280;20617;49.476;10.986;2023-11-21T03:36:32;97684.16;;;9.97;100.00
12879;BME280;20617;49.476;10.986;2023-11-21T03:38:38;97680.72;;;9.97;100.00
12879;BME280;20617;49.476;10.986;2023-11-21T03:40:43;97679.97;;;9.95;100.00
12879;BME280;20617;49.476;10.986;2023-11-21T03:42:49;97681.66;;;9.96;100.00
12879;BME280;20617;49.476;10.986;2023-11-21T03:44:55;97675.78;;;9.92;100.00
12879;BME280;20617;49.476;10.986;2023-11-21T03:47:03;97686.16;;;9.92;100.00
12879;BME280;20617;49.476;10.986;2023-11-21T03:49:08;97681.81;;;9.93;100.00
12879;BME280;20617;49.476;10.986;2023-11-21T03:51:13;97677.66;;;9.89;100.00
12879;BME280;20617;49.476;10.986;2023-11-21T03:53:19;97686.38;;;9.88;100.00
12879;BME280;20617;49.476;10.986;2023-11-21T03:55:24;97685.53;;;9.87;100.00
12879;BME280;20617;49.476;10.986;2023-11-21T03:57:29;97682.09;;;9.87;100.00
12879;BME280;20617;49.476;10.986;2023-11-21T03:59:34;97688.06;;;9.89;100.00
12879;BME280;20617;49.476;10.986;2023-11-21T04:01:39;97685.59;;;9.86;100.00
12879;BME280;20617;49.476;10.986;2023-11-21T04:03:47;97697.63;;;9.88;100.00
12879;BME280;20617;49.476;10.986;2023-11-21T04:05:53;97691.53;;;9.89;100.00
12879;BME280;20617;49.476;10.986;2023-11-21T04:07:59;97693.25;;;9.89;100.00
12879;BME280;20617;49.476;10.986;2023-11-21T04:10:04;97701.91;;;9.89;100.00
12879;BME280;20617;49.476;10.986;2023-11-21T04:12:13;97695.25;;;9.84;100.00
12879;BME280;20617;49.476;10.986;2023-11-21T04:14:19;97697.91;;;9.82;100.00
12879;BME280;20617;49.476;10.986;2023-11-21T04:16:24;97688.59;;;9.78;100.00
12879;BME280;20617;49.476;10.986;2023-11-21T04:18:30;97692.94;;;9.78;100.00
12879;BME280;20617;49.476;10.986;2023-11-21T04:20:36;97699.00;;;9.78;100.00
12879;BME280;20617;49.476;10.986;2023-11-21T04:22:44;97698.06;;;9.79;100.00
12879;BME280;20617;49.476;10.986;2023-11-21T04:24:50;97693.69;;;9.80;100.00
12879;BME280;20617;49.476;10.986;2023-11-21T04:26:52;97697.06;;;9.82;100.00
12879;BME280;20617;49.476;10.986;2023-11-21T04:28:58;97699.63;;;9.83;100.00
12879;BME280;20617;49.476;10.986;2023-11-21T04:31:03;97690.06;;;9.84;100.00
12879;BME280;20617;49.476;10.986;2023-11-21T04:33:09;97700.47;;;9.84;100.00
12879;BME280;20617;49.476;10.986;2023-11-21T04:35:11;97694.41;;;9.83;100.00
12879;BME280;20617;49.476;10.986;2023-11-21T04:37:19;97695.25;;;9.84;100.00
12879;BME280;20617;49.476;10.986;2023-11-21T04:39:24;97699.00;;;9.78;100.00
12879;BME280;20617;49.476;10.986;2023-11-21T04:41:29;97707.91;;;9.72;100.00
12879;BME280;20617;49.476;10.986;2023-11-21T04:43:35;97706.44;;;9.67;100.00
12879;BME280;20617;49.476;10.986;2023-11-21T04:45:40;97702.94;;;9.68;100.00
12879;BME280;20617;49.476;10.986;2023-11-21T04:47:46;97704.19;;;9.59;100.00
12879;BME280;20617;49.476;10.986;2023-11-21T04:49:51;97707.63;;;9.60;100.00
12879;BME280;20617;49.476;10.986;2023-11-21T04:51:56;97716.16;;;9.63;100.00
12879;BME280;20617;49.476;10.986;2023-11-21T04:54:03;97715.78;;;9.71;100.00
12879;BME280;20617;49.476;10.986;2023-11-21T04:56:10;97721.69;;;9.74;100.00
12879;BME280;20617;49.476;10.986;2023-11-21T04:58:15;97721.69;;;9.74;100.00
12879;BME280;20617;49.476;10.986;2023-11-21T05:00:23;97712.81;;;9.79;100.00
12879;BME280;20617;49.476;10.986;2023-11-21T05:02:25;97715.34;;;9.80;100.00
12879;BME280;20617;49.476;10.986;2023-11-21T05:04:37;97707.41;;;9.83;100.00
12879;BME280;20617;49.476;10.986;2023-11-21T05:06:42;97715.06;;;9.86;100.00
12879;BME280;20617;49.476;10.986;2023-11-21T05:08:48;97713.31;;;9.87;100.00
12879;BME280;20617;49.476;10.986;2023-11-21T05:10:56;97711.84;;;9.81;100.00
12879;BME280;20617;49.476;10.986;2023-11-21T05:13:00;97716.19;;;9.81;100.00
12879;BME280;20617;49.476;10.986;2023-11-21T05:15:06;97714.50;;;9.80;100.00
12879;BME280;20617;49.476;10.986;2023-11-21T05:17:10;97713.59;;;9.81;100.00
12879;BME280;20617;49.476;10.986;2023-11-21T05:19:15;97716.94;;;9.83;100.00
12879;BME280;20617;49.476;10.986;2023-11-21T05:21:20;97720.31;;;9.85;100.00
12879;BME280;20617;49.476;10.986;2023-11-21T05:23:26;97716.81;;;9.86;100.00
12879;BME280;20617;49.476;10.986;2023-11-21T05:25:32;97727.19;;;9.86;100.00
12879;BME280;20617;49.476;10.986;2023-11-21T05:27:44;97728.81;;;9.88;100.00
12879;BME280;20617;49.476;10.986;2023-11-21T05:29:49;97726.94;;;9.92;100.00
12879;BME280;20617;49.476;10.986;2023-11-21T05:31:52;97734.66;;;9.93;100.00
12879;BME280;20617;49.476;10.986;2023-11-21T05:33:57;97735.47;;;9.94;100.00
12879;BME280;20617;49.476;10.986;2023-11-21T05:36:03;97734.59;;;9.95;100.00
12879;BME280;20617;49.476;10.986;2023-11-21T05:38:09;97725.84;;;9.96;100.00
12879;BME280;20617;49.476;10.986;2023-11-21T05:40:13;97737.88;;;9.98;100.00
12879;BME280;20617;49.476;10.986;2023-11-21T05:42:18;97742.09;;;10.01;100.00
12879;BME280;20617;49.476;10.986;2023-11-21T05:44:24;97742.00;;;10.03;100.00
12879;BME280;20617;49.476;10.986;2023-11-21T05:46:29;97741.31;;;9.99;100.00
12879;BME280;20617;49.476;10.986;2023-11-21T05:48:34;97744.84;;;9.98;100.00
12879;BME280;20617;49.476;10.986;2023-11-21T05:50:40;97744.84;;;9.98;100.00
12879;BME280;20617;49.476;10.986;2023-11-21T05:52:43;97749.06;;;10.01;100.00
12879;BME280;20617;49.476;10.986;2023-11-21T05:54:48;97746.38;;;10.02;100.00
12879;BME280;20617;49.476;10.986;2023-11-21T05:56:53;97746.38;;;10.02;100.00
12879;BME280;20617;49.476;10.986;2023-11-21T05:58:58;97748.34;;;9.97;100.00
12879;BME280;20617;49.476;10.986;2023-11-21T06:01:05;97745.81;;;9.95;100.00
12879;BME280;20617;49.476;10.986;2023-11-21T06:03:14;97748.78;;;9.88;100.00
12879;BME280;20617;49.476;10.986;2023-11-21T06:05:18;97750.34;;;9.92;100.00
12879;BME280;20617;49.476;10.986;2023-11-21T06:07:25;97748.47;;;9.94;100.00
12879;BME280;20617;49.476;10.986;2023-11-21T06:09:27;97749.94;;;10.00;100.00
12879;BME280;20617;49.476;10.986;2023-11-21T06:11:32;97758.03;;;9.93;100.00
12879;BME280;20617;49.476;10.986;2023-11-21T06:13:38;97758.81;;;9.95;100.00
12879;BME280;20617;49.476;10.986;2023-11-21T06:15:45;97767.47;;;9.96;100.00
12879;BME280;20617;49.476;10.986;2023-11-21T06:17:54;97761.28;;;9.98;100.00
12879;BME280;20617;49.476;10.986;2023-11-21T06:19:59;97755.16;;;10.00;100.00
12879;BME280;20617;49.476;10.986;2023-11-21T06:22:11;97764.56;;;10.02;100.00
12879;BME280;20617;49.476;10.986;2023-11-21T06:24:16;97761.19;;;10.00;100.00
12879;BME280;20617;49.476;10.986;2023-11-21T06:26:23;97767.16;;;10.02;100.00
12879;BME280;20617;49.476;10.986;2023-11-21T06:28:28;97765.50;;;10.01;100.00
12879;BME280;20617;49.476;10.986;2023-11-21T06:30:33;97765.69;;;9.96;100.00
12879;BME280;20617;49.476;10.986;2023-11-21T06:32:40;97769.06;;;9.98;100.00
12879;BME280;20617;49.476;10.986;2023-11-21T06:34:47;97770.75;;;10.00;100.00
12879;BME280;20617;49.476;10.986;2023-11-21T06:36:53;97777.66;;;10.01;100.00
12879;BME280;20617;49.476;10.986;2023-11-21T06:38:58;97777.56;;;10.02;100.00
12879;BME280;20617;49.476;10.986;2023-11-21T06:41:05;97775.66;;;10.06;100.00
12879;BME280;20617;49.476;10.986;2023-11-21T06:43:11;97780.31;;;9.99;100.00
12879;BME280;20617;49.476;10.986;2023-11-21T06:45:16;97783.53;;;10.04;100.00
12879;BME280;20617;49.476;10.986;2023-11-21T06:47:23;97776.63;;;10.03;100.00
12879;BME280;20617;49.476;10.986;2023-11-21T06:49:31;97788.06;;;10.01;100.00
12879;BME280;20617;49.476;10.986;2023-11-21T06:51:40;97786.28;;;10.01;100.00
12879;BME280;20617;49.476;10.986;2023-11-21T06:53:46;97791.41;;;10.03;100.00
12879;BME280;20617;49.476;10.986;2023-11-21T06:55:51;97792.03;;;10.08;100.00
12879;BME280;20617;49.476;10.986;2023-11-21T06:57:57;97796.31;;;10.09;100.00
12879;BME280;20617;49.476;10.986;2023-11-21T07:00:04;97809.94;;;10.14;100.00
12879;BME280;20617;49.476;10.986;2023-11-21T07:02:11;97801.22;;;10.15;100.00
12879;BME280;20617;49.476;10.986;2023-11-21T07:04:14;97808.03;;;10.17;100.00
12879;BME280;20617;49.476;10.986;2023-11-21T07:06:23;97813.25;;;10.17;100.00
12879;BME280;20617;49.476;10.986;2023-11-21T07:08:31;97813.09;;;10.20;100.00
12879;BME280;20617;49.476;10.986;2023-11-21T07:10:36;97818.16;;;10.24;100.00
12879;BME280;20617;49.476;10.986;2023-11-21T07:12:42;97821.13;;;10.16;100.00
12879;BME280;20617;49.476;10.986;2023-11-21T07:14:48;97824.47;;;10.18;100.00
12879;BME280;20617;49.476;10.986;2023-11-21T07:16:53;97819.06;;;10.23;100.00
12879;BME280;20617;49.476;10.986;2023-11-21T07:18:59;97827.56;;;10.26;100.00
12879;BME280;20617;49.476;10.986;2023-11-21T07:21:06;97823.19;;;10.28;100.00
12879;BME280;20617;49.476;10.986;2023-11-21T07:23:15;97831.66;;;10.32;100.00
12879;BME280;20617;49.476;10.986;2023-11-21T07:25:23;97834.91;;;10.37;100.00
12879;BME280;20617;49.476;10.986;2023-11-21T07:27:29;97837.56;;;10.35;100.00
12879;BME280;20617;49.476;10.986;2023-11-21T07:29:36;97844.03;;;10.27;100.00
12879;BME280;20617;49.476;10.986;2023-11-21T07:31:41;97845.59;;;10.31;100.00
12879;BME280;20617;49.476;10.986;2023-11-21T07:33:47;97844.16;;;10.24;100.00
12879;BME280;20617;49.476;10.986;2023-11-21T07:35:52;97844.25;;;10.22;100.00
12879;BME280;20617;49.476;10.986;2023-11-21T07:38:00;97850.81;;;10.31;100.00
12879;BME280;20617;49.476;10.986;2023-11-21T07:40:08;97846.09;;;10.39;100.00
12879;BME280;20617;49.476;10.986;2023-11-21T07:42:18;97847.13;;;10.35;100.00
12879;BME280;20617;49.476;10.986;2023-11-21T07:44:26;97852.34;;;10.35;100.00
12879;BME280;20617;49.476;10.986;2023-11-21T07:46:31;97846.22;;;10.36;100.00
12879;BME280;20617;49.476;10.986;2023-11-21T07:48:41;97846.91;;;10.39;100.00
12879;BME280;20617;49.476;10.986;2023-11-21T07:50:48;97848.38;;;10.45;100.00
12879;BME280;20617;49.476;10.986;2023-11-21T07:52:53;97845.00;;;10.43;100.00
12879;BME280;20617;49.476;10.986;2023-11-21T07:54:59;97845.84;;;10.43;100.00
12879;BME280;20617;49.476;10.986;2023-11-21T07:57:07;97849.16;;;10.47;100.00
12879;BME280;20617;49.476;10.986;2023-11-21T07:59:20;97847.41;;;10.48;100.00
12879;BME280;20617;49.476;10.986;2023-11-21T08:01:29;97850.06;;;10.46;100.00
12879;BME280;20617;49.476;10.986;2023-11-21T08:03:39;97858.66;;;10.48;100.00
12879;BME280;20617;49.476;10.986;2023-11-21T08:05:42;97856.19;;;10.45;100.00
12879;BME280;20617;49.476;10.986;2023-11-21T08:07:47;97858.81;;;10.45;100.00
12879;BME280;20617;49.476;10.986;2023-11-21T08:09:53;97856.19;;;10.45;100.00
12879;BME280;20617;49.476;10.986;2023-11-21T08:12:01;97854.28;;;10.49;100.00
12879;BME280;20617;49.476;10.986;2023-11-21T08:14:11;97855.22;;;10.48;100.00
12879;BME280;20617;49.476;10.986;2023-11-21T08:16:20;97866.22;;;10.53;100.00
12879;BME280;20617;49.476;10.986;2023-11-21T08:18:26;97861.78;;;10.55;100.00
12879;BME280;20617;49.476;10.986;2023-11-21T08:20:31;97862.72;;;10.54;100.00
12879;BME280;20617;49.476;10.986;2023-11-21T08:22:41;97861.41;;;10.45;100.00
12879;BME280;20617;49.476;10.986;2023-11-21T08:24:47;97855.50;;;10.41;100.00
12879;BME280;20617;49.476;10.986;2023-11-21T08:26:52;97863.31;;;10.41;100.00
12879;BME280;20617;49.476;10.986;2023-11-21T08:28:58;97859.56;;;10.47;100.00
12879;BME280;20617;49.476;10.986;2023-11-21T08:31:05;97863.84;;;10.48;100.00
12879;BME280;20617;49.476;10.986;2023-11-21T08:33:28;97859.03;;;10.58;100.00
12879;BME280;20617;49.476;10.986;2023-11-21T08:35:41;97855.66;;;10.56;100.00
12879;BME280;20617;49.476;10.986;2023-11-21T08:37:51;97855.44;;;10.60;100.00
12879;BME280;20617;49.476;10.986;2023-11-21T08:39:58;97853.00;;;10.57;100.00
12879;BME280;20617;49.476;10.986;2023-11-21T08:42:04;97865.69;;;10.46;100.00
12879;BME280;20617;49.476;10.986;2023-11-21T08:44:11;97866.19;;;10.35;100.00
12879;BME280;20617;49.476;10.986;2023-11-21T08:46:21;97871.97;;;10.42;100.00
12879;BME280;20617;49.476;10.986;2023-11-21T08:48:34;97871.56;;;10.50;100.00
12879;BME280;20617;49.476;10.986;2023-11-21T08:50:40;97875.78;;;10.52;100.00
12879;BME280;20617;49.476;10.986;2023-11-21T08:52:46;97876.72;;;10.51;100.00
12879;BME280;20617;49.476;10.986;2023-11-21T08:54:53;97886.97;;;10.54;100.00
12879;BME280;20617;49.476;10.986;2023-11-21T08:57:00;97884.72;;;10.65;100.00
12879;BME280;20617;49.476;10.986;2023-11-21T08:59:05;97885.34;;;10.71;100.00
12879;BME280;20617;49.476;10.986;2023-11-21T09:01:10;97891.97;;;10.59;100.00
12879;BME280;20617;49.476;10.986;2023-11-21T09:03:16;97891.09;;;10.58;100.00
12879;BME280;20617;49.476;10.986;2023-11-21T09:05:25;97898.50;;;10.68;100.00
12879;BME280;20617;49.476;10.986;2023-11-21T09:07:30;97896.03;;;10.64;100.00
12879;BME280;20617;49.476;10.986;2023-11-21T09:09:32;97898.16;;;10.56;100.00
12879;BME280;20617;49.476;10.986;2023-11-21T09:11:45;97902.81;;;10.50;100.00
12879;BME280;20617;49.476;10.986;2023-11-21T09:13:51;97911.25;;;10.55;100.00
12879;BME280;20617;49.476;10.986;2023-11-21T09:15:57;97904.34;;;10.54;100.00
12879;BME280;20617;49.476;10.986;2023-11-21T09:18:03;97909.03;;;10.64;100.00
12879;BME280;20617;49.476;10.986;2023-11-21T09:20:09;97913.50;;;10.62;100.00
12879;BME280;20617;49.476;10.986;2023-11-21T09:22:19;97915.66;;;10.72;100.00
12879;BME280;20617;49.476;10.986;2023-11-21T09:24:26;97920.16;;;10.68;100.00
12879;BME280;20617;49.476;10.986;2023-11-21T09:26:32;97921.94;;;10.68;100.00
12879;BME280;20617;49.476;10.986;2023-11-21T09:28:36;97922.81;;;10.67;100.00
12879;BME280;20617;49.476;10.986;2023-11-21T09:30:45;97927.69;;;10.74;100.00
12879;BME280;20617;49.476;10.986;2023-11-21T09:32:52;97927.00;;;10.71;100.00
12879;BME280;20617;49.476;10.986;2023-11-21T09:34:57;97926.53;;;10.80;100.00
12879;BME280;20617;49.476;10.986;2023-11-21T09:37:04;97922.38;;;10.76;100.00
12879;BME280;20617;49.476;10.986;2023-11-21T09:39:13;97924.56;;;10.85;100.00
12879;BME280;20617;49.476;10.986;2023-11-21T09:41:21;97928.44;;;10.94;100.00
12879;BME280;20617;49.476;10.986;2023-11-21T09:43:25;97926.78;;;10.93;100.00
12879;BME280;20617;49.476;10.986;2023-11-21T09:45:34;97933.91;;;10.89;100.00
12879;BME280;20617;49.476;10.986;2023-11-21T09:47:38;97930.03;;;10.79;100.00
12879;BME280;20617;49.476;10.986;2023-11-21T09:49:45;97930.91;;;10.79;100.00
12879;BME280;20617;49.476;10.986;2023-11-21T09:51:49;97935.69;;;10.70;100.00
12879;BME280;20617;49.476;10.986;2023-11-21T09:53:56;97933.00;;;10.54;100.00
12879;BME280;20617;49.476;10.986;2023-11-21T09:56:05;97924.78;;;10.61;100.00
12879;BME280;20617;49.476;10.986;2023-11-21T09:58:11;97922.03;;;10.64;100.00
12879;BME280;20617;49.476;10.986;2023-11-21T10:00:17;97929.16;;;10.80;100.00
12879;BME280;20617;49.476;10.986;2023-11-21T10:02:26;97926.09;;;10.89;100.00
12879;BME280;20617;49.476;10.986;2023-11-21T10:04:33;97924.72;;;10.99;100.00
12879;BME280;20617;49.476;10.986;2023-11-21T10:06:39;97919.13;;;11.07;100.00
12879;BME280;20617;49.476;10.986;2023-11-21T10:08:44;97920.75;;;11.09;100.00
12879;BME280;20617;49.476;10.986;2023-11-21T10:10:56;97924.19;;;10.93;100.00
12879;BME280;20617;49.476;10.986;2023-11-21T10:13:05;97927.06;;;10.86;100.00
12879;BME280;20617;49.476;10.986;2023-11-21T10:15:12;97929.22;;;10.96;100.00
12879;BME280;20617;49.476;10.986;2023-11-21T10:17:19;97922.66;;;11.06;100.00
12879;BME280;20617;49.476;10.986;2023-11-21T10:19:28;97921.88;;;11.04;100.00
12879;BME280;20617;49.476;10.986;2023-11-21T10:21:34;97918.28;;;11.06;100.00
12879;BME280;20617;49.476;10.986;2023-11-21T10:23:41;97917.47;;;11.06;100.00
12879;BME280;20617;49.476;10.986;2023-11-21T10:25:49;97922.38;;;11.12;100.00
12879;BME280;20617;49.476;10.986;2023-11-21T10:28:11;97923.03;;;11.16;100.00
12879;BME280;20617;49.476;10.986;2023-11-21T10:30:15;97918.97;;;11.10;100.00
12879;BME280;20617;49.476;10.986;2023-11-21T10:32:21;97915.75;;;11.05;100.00
12879;BME280;20617;49.476;10.986;2023-11-21T10:34:28;97913.25;;;11.03;100.00
12879;BME280;20617;49.476;10.986;2023-11-21T10:36:38;97919.50;;;10.99;100.00
12879;BME280;20617;49.476;10.986;2023-11-21T10:38:45;97915.75;;;11.05;100.00
12879;BME280;20617;49.476;10.986;2023-11-21T10:40:53;97914.59;;;11.10;100.00
12879;BME280;20617;49.476;10.986;2023-11-21T10:43:05;97918.44;;;11.03;100.00
12879;BME280;20617;49.476;10.986;2023-11-21T10:45:11;97922.38;;;11.12;100.00
12879;BME280;20617;49.476;10.986;2023-11-21T10:47:18;97924.72;;;11.17;100.00
12879;BME280;20617;49.476;10.986;2023-11-21T10:49:26;97924.56;;;11.37;100.00
12879;BME280;20617;49.476;10.986;2023-11-21T10:51:32;97924.03;;;11.48;100.00
12879;BME280;20617;49.476;10.986;2023-11-21T10:53:40;97920.56;;;11.65;100.00
12879;BME280;20617;49.476;10.986;2023-11-21T10:55:49;97919.91;;;11.77;100.00